createdAt,value
2022-08-10T00:00:53.555Z,21.90
2022-08-10T00:03:21.080Z,21.88
2022-08-10T00:05:52.673Z,21.87
2022-08-10T00:08:23.644Z,21.87
2022-08-10T00:10:51.859Z,21.81
2022-08-10T00:13:19.459Z,21.77
2022-08-10T00:15:53.398Z,21.76
2022-08-10T00:18:31.499Z,21.71
2022-08-10T00:21:03.151Z,21.69
2022-08-10T00:23:30.768Z,21.66
2022-08-10T00:25:58.330Z,21.67
2022-08-10T00:28:25.844Z,21.69
2022-08-10T00:30:53.492Z,21.65
2022-08-10T00:33:22.107Z,21.61
2022-08-10T00:35:51.354Z,21.61
2022-08-10T00:38:18.942Z,21.62
2022-08-10T00:40:47.106Z,21.62
2022-08-10T00:43:14.668Z,21.58
2022-08-10T00:45:42.225Z,21.57
2022-08-10T00:48:10.786Z,21.53
2022-08-10T00:50:38.812Z,21.49
2022-08-10T00:53:08.105Z,21.48
2022-08-10T00:57:09.100Z,21.46
2022-08-10T00:58:25.020Z,21.44
2022-08-10T01:00:53.744Z,21.40
2022-08-10T01:04:36.584Z,21.40
2022-08-10T01:06:16.028Z,21.35
2022-08-10T01:08:52.422Z,21.28
2022-08-10T01:12:27.638Z,21.24
2022-08-10T01:14:22.784Z,21.18
2022-08-10T01:16:55.397Z,21.14
2022-08-10T01:19:43.479Z,21.13
2022-08-10T01:22:41.207Z,21.10
2022-08-10T01:26:11.415Z,21.08
2022-08-10T01:28:35.030Z,21.07
2022-08-10T01:31:05.473Z,21.04
2022-08-10T01:33:58.877Z,21.03
2022-08-10T01:36:32.401Z,20.98
2022-08-10T01:39:03.946Z,20.95
2022-08-10T01:41:45.863Z,20.89
2022-08-10T01:44:20.548Z,20.85
2022-08-10T01:46:57.243Z,20.82
2022-08-10T01:49:26.574Z,20.79
2022-08-10T01:52:00.528Z,20.77
2022-08-10T01:54:30.029Z,20.74
2022-08-10T01:57:00.840Z,20.74
2022-08-10T01:59:33.639Z,20.71
2022-08-10T02:02:05.862Z,20.70
2022-08-10T02:04:36.959Z,20.65
2022-08-10T02:07:08.482Z,20.62
2022-08-10T02:09:40.330Z,20.61
2022-08-10T02:12:10.617Z,20.59
2022-08-10T02:14:43.045Z,20.58
2022-08-10T02:17:59.529Z,20.56
2022-08-10T02:20:05.016Z,20.56
2022-08-10T02:22:36.039Z,20.55
2022-08-10T02:25:07.183Z,20.54
2022-08-10T02:27:35.142Z,20.54
2022-08-10T02:30:05.793Z,20.53
2022-08-10T02:32:38.162Z,20.51
2022-08-10T02:35:19.410Z,20.50
2022-08-10T02:37:52.671Z,20.49
2022-08-10T02:45:15.316Z,20.46
2022-08-10T02:45:23.630Z,20.46
2022-08-10T02:46:13.969Z,20.44
2022-08-10T02:48:49.926Z,20.43
2022-08-10T02:52:07.708Z,20.39
2022-08-10T02:54:25.211Z,20.37
2022-08-10T02:56:56.063Z,20.35
2022-08-10T02:59:39.773Z,20.34
2022-08-10T03:02:11.706Z,20.32
2022-08-10T03:04:55.157Z,20.30
2022-08-10T03:07:43.281Z,20.28
2022-08-10T03:10:18.645Z,20.25
2022-08-10T03:12:50.684Z,20.23
2022-08-10T03:15:20.562Z,20.23
2022-08-10T03:17:57.237Z,20.21
2022-08-10T03:20:33.909Z,20.20
2022-08-10T03:23:10.744Z,20.21
2022-08-10T03:25:39.129Z,20.20
2022-08-10T03:28:07.958Z,20.19
2022-08-10T03:30:36.431Z,20.17
2022-08-10T03:33:05.746Z,20.17
2022-08-10T03:35:35.435Z,20.15
2022-08-10T03:38:03.870Z,20.15
2022-08-10T03:40:46.227Z,20.17
2022-08-10T03:43:18.295Z,20.23
2022-08-10T03:45:55.648Z,20.28
2022-08-10T03:48:42.436Z,20.33
2022-08-10T03:51:15.528Z,20.34
2022-08-10T03:54:04.402Z,20.34
2022-08-10T03:56:32.969Z,20.32
2022-08-10T03:59:01.063Z,20.29
2022-08-10T04:02:41.446Z,20.24
2022-08-10T04:04:22.739Z,20.18
2022-08-10T04:06:55.000Z,20.12
2022-08-10T04:09:23.618Z,20.09
2022-08-10T04:11:51.176Z,20.05
2022-08-10T04:14:38.843Z,20.06
2022-08-10T04:17:09.559Z,20.07
2022-08-10T04:19:45.085Z,20.07
2022-08-10T04:22:17.676Z,20.06
2022-08-10T04:24:47.375Z,20.05
2022-08-10T04:27:15.809Z,20.02
2022-08-10T04:32:47.829Z,20.01
2022-08-10T04:35:18.847Z,20.04
2022-08-10T04:37:50.114Z,20.05
2022-08-10T04:40:28.660Z,20.05
2022-08-10T04:43:02.161Z,20.03
2022-08-10T04:45:49.081Z,20.03
2022-08-10T04:48:43.016Z,20.05
2022-08-10T04:51:10.799Z,20.06
2022-08-10T04:54:02.816Z,20.06
2022-08-10T04:56:32.518Z,20.02
2022-08-10T04:59:00.352Z,20.00
2022-08-10T05:02:27.026Z,19.96
2022-08-10T05:04:35.922Z,19.95
2022-08-10T05:07:03.266Z,19.91
2022-08-10T05:09:32.133Z,19.88
2022-08-10T05:11:59.685Z,19.88
2022-08-10T05:14:27.549Z,19.86
2022-08-10T05:16:56.813Z,19.85
2022-08-10T05:20:02.359Z,19.85
2022-08-10T05:22:11.913Z,19.84
2022-08-10T05:24:40.808Z,19.85
2022-08-10T05:27:09.966Z,19.88
2022-08-10T05:29:38.341Z,19.91
2022-08-10T05:32:06.306Z,19.93
2022-08-10T05:34:33.917Z,19.94
2022-08-10T05:37:02.282Z,19.96
2022-08-10T05:39:32.128Z,19.99
2022-08-10T05:44:35.357Z,20.05
2022-08-10T05:47:02.938Z,20.08
2022-08-10T05:49:30.547Z,20.11
2022-08-10T05:58:04.539Z,20.17
2022-08-10T06:00:40.777Z,20.21
2022-08-10T06:03:15.708Z,20.25
2022-08-10T06:05:45.549Z,20.30
2022-08-10T06:08:16.934Z,20.33
2022-08-10T06:12:28.113Z,20.38
2022-08-10T06:13:59.987Z,20.41
2022-08-10T06:16:43.164Z,20.49
2022-08-10T06:19:14.718Z,20.56
2022-08-10T06:21:54.413Z,20.62
2022-08-10T06:24:31.254Z,20.69
2022-08-10T06:26:59.267Z,20.76
2022-08-10T06:29:30.398Z,20.82
2022-08-10T06:32:00.999Z,20.87
2022-08-10T06:34:32.849Z,20.93
2022-08-10T06:37:02.469Z,21.00
2022-08-10T06:39:34.948Z,21.09
2022-08-10T06:42:16.090Z,21.17
2022-08-10T06:44:49.596Z,21.24
2022-08-10T06:47:23.148Z,21.32
2022-08-10T06:49:59.561Z,21.41
2022-08-10T06:52:30.929Z,21.50
2022-08-10T06:55:00.648Z,21.60
2022-08-10T06:57:31.932Z,21.69
2022-08-10T07:00:02.784Z,21.78
2022-08-10T07:02:45.207Z,21.87
2022-08-10T07:05:18.213Z,21.94
2022-08-10T07:07:47.694Z,22.00
2022-08-10T07:10:20.408Z,22.09
2022-08-10T07:12:49.254Z,22.19
2022-08-10T07:15:18.306Z,22.26
2022-08-10T07:17:48.269Z,22.33
2022-08-10T07:20:18.527Z,22.44
2022-08-10T07:23:27.399Z,22.56
2022-08-10T07:25:40.507Z,22.68
2022-08-10T07:28:09.277Z,22.79
2022-08-10T07:30:39.141Z,22.88
2022-08-10T07:33:09.069Z,22.98
2022-08-10T07:35:42.594Z,23.10
2022-08-10T07:38:13.860Z,23.21
2022-08-10T07:40:43.213Z,23.31
2022-08-10T07:43:11.915Z,23.39
2022-08-10T07:45:40.961Z,23.47
2022-08-10T07:48:14.915Z,23.55
2022-08-10T07:50:44.536Z,23.64
2022-08-10T07:53:18.149Z,23.70
2022-08-10T07:56:01.729Z,23.76
2022-08-10T07:58:39.291Z,23.85
2022-08-10T08:01:08.099Z,23.94
2022-08-10T08:03:37.907Z,24.00
2022-08-10T08:06:11.657Z,24.07
2022-08-10T08:08:41.608Z,24.14
2022-08-10T08:11:10.308Z,24.19
2022-08-10T08:13:56.861Z,24.29
2022-08-10T08:16:25.413Z,24.36
2022-08-10T08:24:08.638Z,24.56
2022-08-10T08:24:36.494Z,24.68
2022-08-10T08:27:06.084Z,24.78
2022-08-10T08:29:36.472Z,24.87
2022-08-10T08:32:05.632Z,24.93
2022-08-10T08:34:37.312Z,25.00
2022-08-10T08:37:06.570Z,25.08
2022-08-10T08:39:36.836Z,25.18
2022-08-10T08:42:16.297Z,25.24
2022-08-10T08:45:00.333Z,25.28
2022-08-10T08:48:03.363Z,25.33
2022-08-10T08:50:48.245Z,25.49
2022-08-10T08:53:24.034Z,25.61
2022-08-10T08:56:24.834Z,25.74
2022-08-10T08:59:09.685Z,25.82
2022-08-10T09:01:55.176Z,25.95
2022-08-10T09:04:38.955Z,26.02
2022-08-10T09:07:59.064Z,26.09
2022-08-10T09:10:37.547Z,26.19
2022-08-10T09:13:10.777Z,26.25
2022-08-10T09:15:47.920Z,26.28
2022-08-10T09:18:22.744Z,26.31
2022-08-10T09:20:56.287Z,26.36
2022-08-10T09:24:04.308Z,26.38
2022-08-10T09:26:23.321Z,26.43
2022-08-10T09:29:11.742Z,26.43
2022-08-10T09:35:43.285Z,26.49
2022-08-10T09:36:25.148Z,26.55
2022-08-10T09:38:01.162Z,26.54
2022-08-10T09:40:59.413Z,26.55
2022-08-10T09:43:32.239Z,26.50
2022-08-10T09:46:11.947Z,26.47
2022-08-10T09:48:51.456Z,26.51
2022-08-10T09:51:47.057Z,26.64
2022-08-10T09:54:42.170Z,26.77
2022-08-10T09:57:43.986Z,26.83
2022-08-10T10:00:14.733Z,26.78
2022-08-10T10:02:58.730Z,26.74
2022-08-10T10:05:37.366Z,26.72
2022-08-10T10:08:14.329Z,26.74
2022-08-10T10:10:52.844Z,26.82
2022-08-10T10:13:52.886Z,26.97
2022-08-10T10:16:41.291Z,27.12
2022-08-10T10:19:28.412Z,27.27
2022-08-10T10:22:13.904Z,27.37
2022-08-10T10:24:46.581Z,27.38
2022-08-10T10:27:27.133Z,27.41
2022-08-10T10:30:01.375Z,27.41
2022-08-10T10:32:42.423Z,27.40
2022-08-10T10:35:17.352Z,27.44
2022-08-10T10:38:01.027Z,27.48
2022-08-10T10:40:36.184Z,27.54
2022-08-10T10:43:16.610Z,27.61
2022-08-10T10:45:58.367Z,27.65
2022-08-10T10:48:39.613Z,27.67
2022-08-10T10:51:13.890Z,27.77
2022-08-10T10:53:50.673Z,27.87
2022-08-10T10:56:26.090Z,27.96
2022-08-10T10:59:33.446Z,28.02
2022-08-10T11:02:02.745Z,28.03
2022-08-10T11:04:40.720Z,28.00
2022-08-10T11:07:21.952Z,27.99
2022-08-10T11:10:31.927Z,27.99
2022-08-10T11:13:06.865Z,27.94
2022-08-10T11:15:58.587Z,27.91
2022-08-10T11:18:34.096Z,27.91
2022-08-10T11:21:24.081Z,27.91
2022-08-10T11:24:47.263Z,27.96
2022-08-10T11:26:49.859Z,28.03
2022-08-10T11:29:24.527Z,28.02
2022-08-10T11:32:01.247Z,27.99
2022-08-10T11:34:49.125Z,27.91
2022-08-10T11:38:34.436Z,27.88
2022-08-10T11:40:29.134Z,27.83
2022-08-10T11:43:06.944Z,27.80
2022-08-10T11:45:37.374Z,27.77
2022-08-10T11:48:53.923Z,27.78
2022-08-10T11:51:22.178Z,27.80
2022-08-10T11:53:58.075Z,27.81
2022-08-10T11:56:30.991Z,27.84
2022-08-10T11:59:17.615Z,27.84
2022-08-10T12:01:48.616Z,27.84
2022-08-10T12:04:18.016Z,27.82
2022-08-10T12:06:56.454Z,27.86
2022-08-10T12:10:12.096Z,27.88
2022-08-10T12:12:14.276Z,27.89
2022-08-10T12:14:47.453Z,27.89
2022-08-10T12:17:19.664Z,27.90
2022-08-10T12:20:02.834Z,27.89
2022-08-10T12:22:37.212Z,27.91
2022-08-10T12:25:10.327Z,27.92
2022-08-10T12:27:42.665Z,27.94
2022-08-10T12:30:14.504Z,27.94
2022-08-10T12:32:49.657Z,27.94
2022-08-10T12:35:26.305Z,28.00
2022-08-10T12:38:06.096Z,28.01
2022-08-10T12:40:40.991Z,28.00
2022-08-10T12:44:06.743Z,27.95
2022-08-10T12:46:08.211Z,27.92
2022-08-10T12:48:40.093Z,27.91
2022-08-10T12:51:14.235Z,27.90
2022-08-10T12:53:51.069Z,27.89
2022-08-10T12:56:25.138Z,27.85
2022-08-10T12:58:57.901Z,27.84
2022-08-10T13:02:06.246Z,27.86
2022-08-10T13:04:25.230Z,27.86
2022-08-10T13:06:54.413Z,27.86
2022-08-10T13:09:25.936Z,27.86
2022-08-10T13:12:44.405Z,27.85
2022-08-10T13:14:50.701Z,27.86
2022-08-10T13:17:24.554Z,27.87
2022-08-10T13:20:13.603Z,27.90
2022-08-10T13:22:43.248Z,27.93
2022-08-10T13:25:14.696Z,27.94
2022-08-10T13:28:01.085Z,27.94
2022-08-10T13:30:35.708Z,27.92
2022-08-10T13:33:06.798Z,27.90
2022-08-10T13:35:35.757Z,27.91
2022-08-10T13:38:04.622Z,27.90
2022-08-10T13:40:34.255Z,27.90
2022-08-10T13:43:07.028Z,27.88
2022-08-10T13:45:40.175Z,27.87
2022-08-10T13:48:11.239Z,27.88
2022-08-10T13:50:41.495Z,27.91
2022-08-10T13:53:15.179Z,27.94
2022-08-10T13:55:54.842Z,27.93
2022-08-10T13:58:25.742Z,27.92
2022-08-10T14:00:56.993Z,27.93
2022-08-10T14:03:26.125Z,27.95
2022-08-10T14:05:56.077Z,27.93
2022-08-10T14:08:27.425Z,27.91
2022-08-10T14:11:11.134Z,27.91
2022-08-10T14:13:44.880Z,27.92
2022-08-10T14:16:13.965Z,27.91
2022-08-10T14:18:44.975Z,27.90
2022-08-10T14:21:13.425Z,27.91
2022-08-10T14:23:41.957Z,27.93
2022-08-10T14:26:21.259Z,27.91
2022-08-10T14:28:53.475Z,27.87
2022-08-10T14:31:25.056Z,27.87
2022-08-10T14:33:57.081Z,27.87
2022-08-10T14:36:30.227Z,27.87
2022-08-10T14:39:01.638Z,27.89
2022-08-10T14:42:03.001Z,27.91
2022-08-10T14:44:21.925Z,27.91
2022-08-10T14:46:55.722Z,27.91
2022-08-10T14:49:27.078Z,27.92
2022-08-10T14:52:01.717Z,27.92
2022-08-10T14:54:32.203Z,27.89
2022-08-10T14:57:11.468Z,27.89
2022-08-10T15:00:24.112Z,27.88
2022-08-10T15:02:40.205Z,27.86
2022-08-10T15:05:20.650Z,27.87
2022-08-10T15:07:59.426Z,27.87
2022-08-10T15:10:28.941Z,27.86
2022-08-10T15:12:59.049Z,27.86
2022-08-10T15:15:31.309Z,27.88
2022-08-10T15:18:18.601Z,27.88
2022-08-10T15:20:56.915Z,27.87
2022-08-10T15:23:31.014Z,27.84
2022-08-10T15:26:05.922Z,27.84
2022-08-10T15:29:23.048Z,27.83
2022-08-10T15:31:34.300Z,27.83
2022-08-10T15:34:23.293Z,27.81
2022-08-10T15:37:40.768Z,27.79
2022-08-10T15:40:25.834Z,27.77
2022-08-10T15:43:20.176Z,27.73
2022-08-10T15:46:00.944Z,27.70
2022-08-10T15:48:33.606Z,27.67
2022-08-10T15:51:06.259Z,27.64
2022-08-10T15:53:46.942Z,27.64
2022-08-10T15:56:28.109Z,27.64
2022-08-10T15:59:08.180Z,27.66
2022-08-10T16:02:04.495Z,27.65
2022-08-10T16:04:36.945Z,27.66
2022-08-10T16:07:06.293Z,27.66
2022-08-10T16:10:24.514Z,27.64
2022-08-10T16:12:34.128Z,27.61
2022-08-10T16:15:08.989Z,27.57
2022-08-10T16:17:55.259Z,27.54
2022-08-10T16:20:27.695Z,27.49
2022-08-10T16:22:57.904Z,27.47
2022-08-10T16:25:47.903Z,27.47
2022-08-10T16:28:23.326Z,27.46
2022-08-10T16:30:54.779Z,27.44
2022-08-10T16:33:53.579Z,27.41
2022-08-10T16:36:18.533Z,27.35
2022-08-10T16:38:49.338Z,27.35
2022-08-10T16:42:00.270Z,27.34
2022-08-10T16:44:11.207Z,27.33
2022-08-10T16:46:43.241Z,27.34
2022-08-10T16:49:12.769Z,27.35
2022-08-10T16:51:42.103Z,27.33
2022-08-10T16:54:11.171Z,27.34
2022-08-10T16:56:48.479Z,27.32
2022-08-10T16:59:20.631Z,27.28
2022-08-10T17:01:53.585Z,27.25
2022-08-10T17:04:24.357Z,27.21
2022-08-10T17:06:56.398Z,27.19
2022-08-10T17:09:27.717Z,27.14
2022-08-10T17:11:58.185Z,27.10
2022-08-10T17:14:28.251Z,27.07
2022-08-10T17:17:00.262Z,27.06
2022-08-10T17:19:30.810Z,27.05
2022-08-10T17:22:00.038Z,27.02
2022-08-10T17:24:31.596Z,26.98
2022-08-10T17:28:04.947Z,26.95
2022-08-10T17:30:03.440Z,26.94
2022-08-10T17:32:44.849Z,26.92
2022-08-10T17:35:23.177Z,26.90
2022-08-10T17:37:57.368Z,26.86
2022-08-10T17:40:27.385Z,26.83
2022-08-10T17:42:56.153Z,26.80
2022-08-10T17:45:48.284Z,26.77
2022-08-10T17:48:14.748Z,26.74
2022-08-10T17:50:49.290Z,26.72
2022-08-10T17:53:19.868Z,26.69
2022-08-10T17:55:53.887Z,26.66
2022-08-10T17:58:24.976Z,26.61
2022-08-10T18:00:57.259Z,26.59
2022-08-10T18:03:45.133Z,26.54
2022-08-10T18:06:16.778Z,26.50
2022-08-10T18:08:48.448Z,26.47
2022-08-10T18:11:20.853Z,26.44
2022-08-10T18:13:56.347Z,26.41
2022-08-10T18:16:27.349Z,26.38
2022-08-10T18:19:00.851Z,26.35
2022-08-10T18:21:32.119Z,26.31
2022-08-10T18:24:04.444Z,26.27
2022-08-10T18:26:36.478Z,26.26
2022-08-10T18:29:07.358Z,26.25
2022-08-10T18:31:37.263Z,26.18
2022-08-10T18:34:07.110Z,26.13
2022-08-10T18:36:45.326Z,26.08
2022-08-10T18:39:15.490Z,26.04
2022-08-10T18:42:04.704Z,25.98
2022-08-10T18:44:37.258Z,25.93
2022-08-10T18:47:10.845Z,25.89
2022-08-10T18:49:50.858Z,25.84
2022-08-10T18:52:23.420Z,25.79
2022-08-10T18:54:54.635Z,25.74
2022-08-10T18:57:33.262Z,25.66
2022-08-10T19:00:09.386Z,25.59
2022-08-10T19:03:12.711Z,25.55
2022-08-10T19:06:03.858Z,25.49
2022-08-10T19:08:49.091Z,25.42
2022-08-10T19:11:25.318Z,25.35
2022-08-10T19:13:59.705Z,25.28
2022-08-10T19:16:36.598Z,25.23
2022-08-10T19:19:26.331Z,25.17
2022-08-10T19:22:02.062Z,25.08
2022-08-10T19:24:44.901Z,24.96
2022-08-10T19:27:22.244Z,24.84
2022-08-10T19:30:11.622Z,24.73
2022-08-10T19:32:53.213Z,24.59
2022-08-10T19:35:30.941Z,24.50
2022-08-10T19:38:07.261Z,24.39
2022-08-10T19:40:57.766Z,24.27
2022-08-10T19:44:00.534Z,24.17
2022-08-10T19:46:32.798Z,24.08
2022-08-10T19:49:05.192Z,23.97
2022-08-10T19:51:42.583Z,23.89
2022-08-10T19:54:18.577Z,23.81
2022-08-10T19:56:59.420Z,23.75
2022-08-10T20:00:16.125Z,23.67
2022-08-10T20:02:24.289Z,23.63
2022-08-10T20:05:01.196Z,23.57
2022-08-10T20:07:37.084Z,23.53
2022-08-10T20:10:12.291Z,23.51
2022-08-10T20:12:49.503Z,23.48
2022-08-10T20:15:28.071Z,23.41
2022-08-10T20:18:00.174Z,23.35
2022-08-10T20:20:33.692Z,23.30
2022-08-10T20:23:12.237Z,23.26
2022-08-10T20:25:43.508Z,23.23
2022-08-10T20:28:19.718Z,23.19
2022-08-10T20:30:51.371Z,23.14
2022-08-10T20:33:27.558Z,23.10
2022-08-10T20:36:02.358Z,23.02
2022-08-10T20:38:36.822Z,22.98
2022-08-10T20:41:23.801Z,22.91
2022-08-10T20:44:04.798Z,22.85
2022-08-10T20:46:36.798Z,22.80
2022-08-10T20:49:23.293Z,22.80
2022-08-10T20:51:58.089Z,22.77
2022-08-10T20:54:33.679Z,22.76
2022-08-10T20:57:54.244Z,22.71
2022-08-10T21:00:36.443Z,22.66
2022-08-10T21:03:32.915Z,22.62
2022-08-10T21:06:21.272Z,22.57
2022-08-10T21:09:05.140Z,22.53
2022-08-10T21:11:46.550Z,22.51
2022-08-10T21:14:28.171Z,22.47
2022-08-10T21:17:09.790Z,22.45
2022-08-10T21:20:28.829Z,22.47
2022-08-10T21:23:05.420Z,22.47
2022-08-10T21:25:43.530Z,22.47
2022-08-10T21:28:35.492Z,22.46
2022-08-10T21:31:16.386Z,22.43
2022-08-10T21:34:06.745Z,22.41
2022-08-10T21:36:37.312Z,22.42
2022-08-10T21:39:15.696Z,22.42
2022-08-10T21:42:13.720Z,22.42
2022-08-10T21:45:16.941Z,22.40
2022-08-10T21:48:30.140Z,22.38
2022-08-10T21:51:24.303Z,22.36
2022-08-10T21:54:33.701Z,22.35
2022-08-10T21:57:24.824Z,22.37
2022-08-10T22:00:16.672Z,22.38
2022-08-10T22:03:03.382Z,22.40
2022-08-10T22:05:54.165Z,22.43
2022-08-10T22:08:44.701Z,22.45
2022-08-10T22:11:37.761Z,22.48
2022-08-10T22:14:26.900Z,22.53
2022-08-10T22:17:59.523Z,22.55
2022-08-10T22:20:32.887Z,22.58
2022-08-10T22:23:30.884Z,22.57
2022-08-10T22:26:29.901Z,22.58
2022-08-10T22:29:19.243Z,22.56
2022-08-10T22:32:16.193Z,22.54
2022-08-10T22:35:14.512Z,22.53
2022-08-10T22:38:10.815Z,22.49
2022-08-10T22:41:01.154Z,22.46
2022-08-10T22:43:51.786Z,22.41
2022-08-10T22:46:40.710Z,22.35
2022-08-10T22:49:07.774Z,22.28
2022-08-10T22:51:49.085Z,22.24
2022-08-10T22:54:39.961Z,22.18
2022-08-10T22:57:30.874Z,22.12
2022-08-10T23:00:00.029Z,22.06
2022-08-10T23:02:33.363Z,22.01
2022-08-10T23:05:09.127Z,21.99
2022-08-10T23:07:42.594Z,21.95
2022-08-10T23:10:12.816Z,21.94
2022-08-10T23:12:44.813Z,21.90
2022-08-10T23:15:41.182Z,21.86
2022-08-10T23:18:31.402Z,21.83
2022-08-10T23:21:01.977Z,21.81
2022-08-10T23:23:36.175Z,21.79
2022-08-10T23:26:05.486Z,21.79
2022-08-10T23:28:58.105Z,21.78
2022-08-10T23:32:00.816Z,21.74
2022-08-10T23:36:43.915Z,21.71
2022-08-10T23:39:26.832Z,21.71
2022-08-10T23:42:04.698Z,21.68
2022-08-10T23:44:37.874Z,21.63
2022-08-10T23:47:07.608Z,21.63
2022-08-10T23:49:37.676Z,21.60
2022-08-10T23:52:11.695Z,21.60
2022-08-10T23:54:45.606Z,21.58
2022-08-10T23:57:17.958Z,21.55
2022-08-10T23:59:51.759Z,21.51
